This is the latest recevied weather packets stored in our database for station/object OH6HPS. If no packets are shown the sender has not sent any weather packets the latest 10 day(s).
| Time | Temp. | Humidity | Pressure | Rain* | Wind** | Luminosity | Snow |
|---|---|---|---|---|---|---|---|
| 1777614331 | 10.56° C | 72% | 1020.8 hPa | 0 mm | - | 292 W/m² | - |
| 1777613733 | 10° C | 73% | 1020.8 hPa | 0 mm | - | 241 W/m² | - |
| 1777613131 | 9.44° C | 75% | 1020.9 hPa | 0 mm | - | 190 W/m² | - |
| 1777612531 | 8.89° C | 77% | 1020.9 hPa | 0 mm | - | 218 W/m² | - |
| 1777611931 | 8.33° C | 79% | 1020.9 hPa | 0 mm | - | 220 W/m² | - |
| 1777611333 | 7.78° C | 81% | 1020.9 hPa | 0 mm | - | 174 W/m² | - |
| 1777610731 | 7.22° C | 83% | 1020.9 hPa | 0 mm | - | 185 W/m² | - |
| 1777610131 | 6.67° C | 87% | 1021 hPa | 0 mm | - | 179 W/m² | - |
| 1777609531 | 5.56° C | 90% | 1021.1 hPa | 0 mm | - | 157 W/m² | - |
| 1777608932 | 4.44° C | 93% | 1021.1 hPa | 0 mm | - | 102 W/m² | - |
| 1777608326 | 3.33° C | 95% | 1021.1 hPa | 0 mm | - | 88 W/m² | - |
| 1777607726 | 2.22° C | 94% | 1021.2 hPa | 0 mm | - | 90 W/m² | - |
| 1777607127 | 1.67° C | 94% | 1021.2 hPa | 0 mm | - | 76 W/m² | - |
| 1777606525 | 1.67° C | 93% | 1021.3 hPa | 0 mm | - | 21 W/m² | - |
| 1777605910 | 1.67° C | 93% | 1021.3 hPa | 0 mm | - | 18 W/m² | - |
| 1777605305 | 1.67° C | 92% | 1021.3 hPa | 0 mm | - | 12 W/m² | - |
| 1777604705 | 1.67° C | 92% | 1021.3 hPa | 0 mm | - | 11 W/m² | - |
| 1777604103 | 1.67° C | 92% | 1021.3 hPa | 0 mm | - | 9 W/m² | - |
| 1777603502 | 1.67° C | 92% | 1021.3 hPa | 0 mm | - | 7 W/m² | - |
| 1777602903 | 1.67° C | 91% | 1021.5 hPa | 0 mm | - | 5 W/m² | - |
| 1777602303 | 1.67° C | 91% | 1021.5 hPa | 0 mm | - | 0 W/m² | - |
| 1777601703 | 1.67° C | 91% | 1021.6 hPa | 0 mm | - | 0 W/m² | - |
| 1777601103 | 1.67° C | 91% | 1021.6 hPa | 0 mm | - | 0 W/m² | - |
| 1777600502 | 1.67° C | 91% | 1021.5 hPa | 0 mm | - | 0 W/m² | - |
| 1777599905 | 2.22° C | 91% | 1021.5 hPa | 0 mm | - | 0 W/m² | - |
* Rain latest hour (hover to see other rain measurements)
** Current wind speed in m/s (hover to see current wind gust speed)